Observation data for Northwest Lubbock on 04/07/2020      Previous  Date  Next       Current Mesonet Observations  Soil Data  Daily Summary Page  Observations in Plain Language
KLBW 070500Z 19012G17KT 18/12 A2998 RMK A01 T01820120  RH  070%=      5-min Rain = 0
KLBW 070505Z 20011KT 18/12 A2998 RMK A01 T01820120  RH  070%=      5-min Rain = 0
KLBW 070510Z 20011KT 18/12 A2998 RMK A01 T01810119  RH  070%=      5-min Rain = 0
KLBW 070515Z 21012G17KT 18/12 A2998 RMK A01 T01800119  RH  070%=      5-min Rain = 0
KLBW 070520Z 21011G16KT 18/12 A2998 RMK A01 T01810117  RH  069%=      5-min Rain = 0
KLBW 070525Z 21013G19KT 18/11 A2998 RMK A01 T01820114  RH  067%=      5-min Rain = 0
KLBW 070530Z 21013G18KT 18/11 A2998 RMK A01 T01830112  RH  065%=      5-min Rain = 0
KLBW 070535Z 21013KT 19/11 A2998 RMK A01 T01860109  RH  063%=      5-min Rain = 0
KLBW 070540Z 21013KT 19/11 A2998 RMK A01 T01880107  RH  061%=      5-min Rain = 0
KLBW 070545Z 21013G19KT 19/11 A2998 RMK A01 T01890105  RH  060%=      5-min Rain = 0
KLBW 070550Z 21013KT 19/11 A2998 RMK A01 T01890105  RH  060%=      5-min Rain = 0
KLBW 070555Z 21013G18KT 19/11 A2998 RMK A01 T01890106  RH  060%=      5-min Rain = 0
KLBW 070600Z 21013G20KT 19/11 A2998 RMK A01 T01880106  RH  061%=      5-min Rain = 0
KLBW 070605Z 21012G19KT 19/11 A2998 RMK A01 T01850107  RH  062%=      5-min Rain = 0
KLBW 070610Z 22011G16KT 18/11 A2998 RMK A01 T01830107  RH  063%=      5-min Rain = 0
KLBW 070615Z 21011G16KT 18/11 A2998 RMK A01 T01830106  RH  063%=      5-min Rain = 0
KLBW 070620Z 21010KT 18/11 A2998 RMK A01 T01800106  RH  064%=      5-min Rain = 0
KLBW 070625Z 21010KT 18/11 A2998 RMK A01 T01790106  RH  064%=      5-min Rain = 0
KLBW 070630Z 21011KT 18/10 A2998 RMK A01 T01780104  RH  064%=      5-min Rain = 0
KLBW 070635Z 22010KT 18/10 A2998 RMK A01 T01780103  RH  063%=      5-min Rain = 0
KLBW 070640Z 22010KT 18/10 A2998 RMK A01 T01780102  RH  063%=      5-min Rain = 0
KLBW 070645Z 22010G15KT 18/10 A2998 RMK A01 T01770101  RH  063%=      5-min Rain = 0
KLBW 070650Z 22011KT 18/10 A2998 RMK A01 T01750101  RH  064%=      5-min Rain = 0
KLBW 070655Z 22010G15KT 17/10 A2998 RMK A01 T01740100  RH  064%=      5-min Rain = 0
KLBW 070700Z 22011KT 17/10 A2998 RMK A01 T01730099  RH  063%=      5-min Rain = 0
KLBW 070705Z 22010KT 17/10 A2998 RMK A01 T01730096  RH  063%=      5-min Rain = 0
KLBW 070710Z 23009KT 17/09 A2998 RMK A01 T01720093  RH  062%=      5-min Rain = 0
KLBW 070715Z 22009KT 17/09 A2998 RMK A01 T01710091  RH  061%=      5-min Rain = 0
KLBW 070720Z 22010G15KT 17/09 A2998 RMK A01 T01700089  RH  061%=      5-min Rain = 0
KLBW 070725Z 22010KT 17/09 A2998 RMK A01 T01710086  RH  059%=      5-min Rain = 0
KLBW 070730Z 22010G15KT 17/08 A2998 RMK A01 T01690083  RH  059%=      5-min Rain = 0
KLBW 070735Z 22010KT 17/08 A2997 RMK A01 T01680080  RH  058%=      5-min Rain = 0
KLBW 070740Z 22009KT 17/08 A2997 RMK A01 T01670077  RH  057%=      5-min Rain = 0
KLBW 070745Z 23010KT 17/07 A2997 RMK A01 T01660074  RH  056%=      5-min Rain = 0
KLBW 070750Z 22010G15KT 17/07 A2997 RMK A01 T01660072  RH  055%=      5-min Rain = 0
KLBW 070755Z 23010KT 17/07 A2997 RMK A01 T01660070  RH  054%=      5-min Rain = 0
KLBW 070800Z 23010KT 16/07 A2997 RMK A01 T01640068  RH  054%=      5-min Rain = 0
KLBW 070805Z 23008G13KT 16/07 A2997 RMK A01 T01630066  RH  054%=      5-min Rain = 0
KLBW 070810Z 23008KT 16/06 A2997 RMK A01 T01610064  RH  054%=      5-min Rain = 0
KLBW 070815Z 23009KT 16/06 A2997 RMK A01 T01600063  RH  054%=      5-min Rain = 0
KLBW 070820Z 23009KT 16/06 A2997 RMK A01 T01590061  RH  053%=      5-min Rain = 0
KLBW 070825Z 23008KT 16/06 A2997 RMK A01 T01580060  RH  053%=      5-min Rain = 0
KLBW 070830Z 24009KT 16/06 A2997 RMK A01 T01580059  RH  053%=      5-min Rain = 0
KLBW 070835Z 24008KT 16/06 A2997 RMK A01 T01580058  RH  053%=      5-min Rain = 0
KLBW 070840Z 24009KT 16/06 A2997 RMK A01 T01570056  RH  052%=      5-min Rain = 0
KLBW 070845Z 24009KT 16/06 A2997 RMK A01 T01580055  RH  052%=      5-min Rain = 0
KLBW 070850Z 24009G14KT 16/06 A2997 RMK A01 T01570055  RH  052%=      5-min Rain = 0
KLBW 070855Z 23010KT 16/05 A2997 RMK A01 T01570053  RH  051%=      5-min Rain = 0
KLBW 070900Z 23009KT 16/05 A2996 RMK A01 T01560053  RH  051%=      5-min Rain = 0
KLBW 070905Z 23009KT 15/05 A2996 RMK A01 T01540052  RH  052%=      5-min Rain = 0
KLBW 070910Z 23009G14KT 16/05 A2996 RMK A01 T01550050  RH  051%=      5-min Rain = 0
KLBW 070915Z 24009KT 16/05 A2996 RMK A01 T01560049  RH  050%=      5-min Rain = 0
KLBW 070920Z 24009KT 16/05 A2996 RMK A01 T01550048  RH  050%=      5-min Rain = 0
KLBW 070925Z 24009G14KT 15/05 A2996 RMK A01 T01530047  RH  050%=      5-min Rain = 0
KLBW 070930Z 24009KT 15/05 A2996 RMK A01 T01510046  RH  051%=      5-min Rain = 0
KLBW 070935Z 24009KT 15/05 A2996 RMK A01 T01500045  RH  050%=      5-min Rain = 0
KLBW 070940Z 24010KT 15/04 A2996 RMK A01 T01510043  RH  049%=      5-min Rain = 0
KLBW 070945Z 24010KT 15/04 A2996 RMK A01 T01510042  RH  049%=      5-min Rain = 0
KLBW 070950Z 24009KT 15/04 A2995 RMK A01 T01510040  RH  048%=      5-min Rain = 0
KLBW 070955Z 24009KT 15/04 A2995 RMK A01 T01510038  RH  047%=      5-min Rain = 0
KLBW 071000Z 24009KT 15/04 A2995 RMK A01 T01510036  RH  047%=      5-min Rain = 0
KLBW 071005Z 24009KT 15/04 A2995 RMK A01 T01500035  RH  047%=      5-min Rain = 0
KLBW 071010Z 24009KT 15/03 A2995 RMK A01 T01480034  RH  047%=      5-min Rain = 0
KLBW 071015Z 24009KT 15/03 A2995 RMK A01 T01490032  RH  046%=      5-min Rain = 0
KLBW 071020Z 25009KT 15/03 A2995 RMK A01 T01490031  RH  046%=      5-min Rain = 0
KLBW 071025Z 24009KT 15/03 A2995 RMK A01 T01490030  RH  046%=      5-min Rain = 0
KLBW 071030Z 24009KT 15/03 A2995 RMK A01 T01490031  RH  046%=      5-min Rain = 0
KLBW 071035Z 24010KT 15/03 A2995 RMK A01 T01500030  RH  045%=      5-min Rain = 0
KLBW 071040Z 25010KT 15/03 A2995 RMK A01 T01500030  RH  045%=      5-min Rain = 0
KLBW 071045Z 25010KT 15/03 A2995 RMK A01 T01510030  RH  045%=      5-min Rain = 0
KLBW 071050Z 25010KT 15/03 A2995 RMK A01 T01510030  RH  045%=      5-min Rain = 0
KLBW 071055Z 25012KT 15/03 A2995 RMK A01 T01530031  RH  045%=      5-min Rain = 0
KLBW 071100Z 25011G16KT 15/03 A2996 RMK A01 T01520031  RH  045%=      5-min Rain = 0
KLBW 071105Z 25011KT 15/03 A2996 RMK A01 T01510032  RH  045%=      5-min Rain = 0
KLBW 071110Z 24010G17KT 15/03 A2996 RMK A01 T01510031  RH  045%=      5-min Rain = 0
KLBW 071115Z 25010KT 15/03 A2996 RMK A01 T01510031  RH  045%=      5-min Rain = 0
KLBW 071120Z 26010G15KT 15/03 A2997 RMK A01 T01510031  RH  045%=      5-min Rain = 0
KLBW 071125Z 26010KT 15/03 A2997 RMK A01 T01470031  RH  046%=      5-min Rain = 0
KLBW 071130Z 26009KT 15/03 A2997 RMK A01 T01450031  RH  047%=      5-min Rain = 0
KLBW 071135Z 26009KT 14/03 A2997 RMK A01 T01420031  RH  048%=      5-min Rain = 0
KLBW 071140Z 26009KT 14/03 A2997 RMK A01 T01400032  RH  049%=      5-min Rain = 0
KLBW 071145Z 26010KT 14/03 A2997 RMK A01 T01380032  RH  050%=      5-min Rain = 0
KLBW 071150Z 26008KT 14/03 A2996 RMK A01 T01360032  RH  050%=      5-min Rain = 0
KLBW 071155Z 25008KT 13/03 A2996 RMK A01 T01340032  RH  051%=      5-min Rain = 0
KLBW 071200Z 26008KT 13/03 A2996 RMK A01 T01330032  RH  051%=      5-min Rain = 0
KLBW 071205Z 25008KT 13/03 A2996 RMK A01 T01330033  RH  051%=      5-min Rain = 0
KLBW 071210Z 25009KT 14/03 A2997 RMK A01 T01350033  RH  051%=      5-min Rain = 0
KLBW 071215Z 25009KT 14/03 A2997 RMK A01 T01370033  RH  050%=      5-min Rain = 0
KLBW 071220Z 25008KT 14/03 A2997 RMK A01 T01360032  RH  050%=      5-min Rain = 0
KLBW 071225Z 26008KT 14/03 A2997 RMK A01 T01360032  RH  050%=      5-min Rain = 0
KLBW 071230Z 26008KT 14/03 A2997 RMK A01 T01350032  RH  051%=      5-min Rain = 0
KLBW 071235Z 26010KT 14/03 A2997 RMK A01 T01360032  RH  051%=      5-min Rain = 0
KLBW 071240Z 26008KT 14/03 A2997 RMK A01 T01380032  RH  050%=      5-min Rain = 0
KLBW 071245Z 26009KT 14/03 A2997 RMK A01 T01400032  RH  049%=      5-min Rain = 0
KLBW 071250Z 26009KT 14/03 A2997 RMK A01 T01420030  RH  048%=      5-min Rain = 0
KLBW 071255Z 26008KT 14/03 A2997 RMK A01 T01440029  RH  047%=      5-min Rain = 0
KLBW 071300Z 26009KT 15/03 A2997 RMK A01 T01470029  RH  046%=      5-min Rain = 0
KLBW 071305Z 25008KT 15/03 A2998 RMK A01 T01480030  RH  046%=      5-min Rain = 0
KLBW 071310Z 25007KT 15/03 A2998 RMK A01 T01470029  RH  046%=      5-min Rain = 0
KLBW 071315Z 25007KT 15/03 A2998 RMK A01 T01450029  RH  046%=      5-min Rain = 0
KLBW 071320Z 25007KT 15/03 A2998 RMK A01 T01450029  RH  047%=      5-min Rain = 0
KLBW 071325Z 25007KT 14/03 A2998 RMK A01 T01440029  RH  047%=      5-min Rain = 0
KLBW 071330Z 25009KT 15/03 A2998 RMK A01 T01450029  RH  046%=      5-min Rain = 0
KLBW 071335Z 26009KT 15/03 A2998 RMK A01 T01460027  RH  045%=      5-min Rain = 0
KLBW 071340Z 26008KT 15/03 A2998 RMK A01 T01460027  RH  045%=      5-min Rain = 0
KLBW 071345Z 26008KT 15/03 A2998 RMK A01 T01460027  RH  045%=      5-min Rain = 0
KLBW 071350Z 25007KT 15/03 A2998 RMK A01 T01450026  RH  045%=      5-min Rain = 0
KLBW 071355Z 25007KT 15/03 A2998 RMK A01 T01450026  RH  045%=      5-min Rain = 0
KLBW 071400Z 26008KT 15/03 A2999 RMK A01 T01470026  RH  045%=      5-min Rain = 0
KLBW 071405Z 25007KT 15/03 A2999 RMK A01 T01510025  RH  043%=      5-min Rain = 0
KLBW 071410Z 25007KT 15/02 A2999 RMK A01 T01530023  RH  042%=      5-min Rain = 0
KLBW 071415Z 26008KT 16/02 A2999 RMK A01 T01640023  RH  039%=      5-min Rain = 0
KLBW 071420Z 27009KT 17/02 A2999 RMK A01 T01730021  RH  037%=      5-min Rain = 0
KLBW 071425Z 28010KT 18/02 A2998 RMK A01 T01760022  RH  036%=      5-min Rain = 0
KLBW 071430Z 28010KT 18/02 A2998 RMK A01 T01820020  RH  034%=      5-min Rain = 0
KLBW 071435Z 28011KT 19/02 A2999 RMK A01 T01910017  RH  032%=      5-min Rain = 0
KLBW 071440Z 28011KT 20/01 A2999 RMK A01 T02000014  RH  029%=      5-min Rain = 0
KLBW 071445Z 28011G17KT 20/01 A2999 RMK A01 T02040012  RH  028%=      5-min Rain = 0
KLBW 071450Z 28010KT 21/01 A2999 RMK A01 T02070011  RH  028%=      5-min Rain = 0
KLBW 071455Z 28012G17KT 21/00 A2999 RMK A01 T02090003  RH  026%=      5-min Rain = 0
KLBW 071500Z 28012KT 21/00 A2999 RMK A01 T02120000  RH  025%=      5-min Rain = 0
KLBW 071505Z 28014G19KT 21/M01 A2999 RMK A01 T02131005  RH  024%=      5-min Rain = 0
KLBW 071510Z 28011G16KT 21/00 A2999 RMK A01 T021400-0  RH  024%=      5-min Rain = 0
KLBW 071515Z 28012G17KT 21/M00 A2999 RMK A01 T02121004  RH  024%=      5-min Rain = 0
KLBW 071520Z 28011KT 22/00 A2999 RMK A01 T02170001  RH  024%=      5-min Rain = 0
KLBW 071525Z 28009KT 22/00 A2999 RMK A01 T02200003  RH  024%=      5-min Rain = 0
KLBW 071530Z 28012KT 22/M01 A2999 RMK A01 T02231009  RH  021%=      5-min Rain = 0
KLBW 071535Z 29011G17KT 22/M02 A30 RMK A01 T02231018  RH  020%=      5-min Rain = 0
KLBW 071540Z 29011G16KT 23/M02 A30 RMK A01 T02271015  RH  020%=      5-min Rain = 0
KLBW 071545Z 29010KT 23/M01 A30 RMK A01 T02251014  RH  020%=      5-min Rain = 0
KLBW 071550Z 28012KT 23/M01 A30 RMK A01 T02261013  RH  020%=      5-min Rain = 0
KLBW 071555Z 28012KT 23/M02 A3001 RMK A01 T02271016  RH  020%=      5-min Rain = 0
KLBW 071600Z 29009KT 23/M01 A3001 RMK A01 T02301011  RH  020%=      5-min Rain = 0
KLBW 071605Z 29009KT 24/M01 A3001 RMK A01 T02361011  RH  020%=      5-min Rain = 0
KLBW 071610Z 28010KT 24/M01 A30 RMK A01 T02371013  RH  019%=      5-min Rain = 0
KLBW 071615Z 30008KT 24/M01 A30 RMK A01 T02401011  RH  019%=      5-min Rain = 0
KLBW 071620Z 29008KT 24/M01 A30 RMK A01 T02441011  RH  019%=      5-min Rain = 0
KLBW 071625Z 30009KT 24/M01 A30 RMK A01 T02431014  RH  018%=      5-min Rain = 0
KLBW 071630Z 31008KT 25/M01 A30 RMK A01 T02491007  RH  019%=      5-min Rain = 0
KLBW 071635Z 30009G14KT 25/M01 A30 RMK A01 T02491014  RH  018%=      5-min Rain = 0
KLBW 071640Z 28010G15KT 25/M02 A30 RMK A01 T02491016  RH  017%=      5-min Rain = 0
KLBW 071645Z 30009G14KT 25/M01 A30 RMK A01 T02531014  RH  017%=      5-min Rain = 0
KLBW 071650Z 29009KT 25/M02 A30 RMK A01 T02501024  RH  016%=      5-min Rain = 0
KLBW 071655Z 28010KT 26/M02 A2999 RMK A01 T02571017  RH  017%=      5-min Rain = 0
KLBW 071700Z 28008G13KT 26/M02 A2999 RMK A01 T02581020  RH  016%=      5-min Rain = 0
KLBW 071705Z 31008G14KT 26/M03 A30 RMK A01 T02621025  RH  015%=      5-min Rain = 0
KLBW 071710Z 31007G13KT 27/M03 A2999 RMK A01 T02651030  RH  014%=      5-min Rain = 0
KLBW 071715Z 32009KT 26/M04 A2999 RMK A01 T02631037  RH  014%=      5-min Rain = 0
KLBW 071720Z 31008KT 26/M04 A2999 RMK A01 T02621041  RH  013%=      5-min Rain = 0
KLBW 071725Z 31009KT 27/M04 A2999 RMK A01 T02681035  RH  013%=      5-min Rain = 0
KLBW 071730Z 31009KT 27/M05 A2999 RMK A01 T02681045  RH  013%=      5-min Rain = 0
KLBW 071735Z 31007G12KT 27/M04 A2999 RMK A01 T02691039  RH  013%=      5-min Rain = 0
KLBW 071740Z 32007KT 27/M04 A2999 RMK A01 T02671044  RH  013%=      5-min Rain = 0
KLBW 071745Z 32007G14KT 27/M04 A2999 RMK A01 T02711041  RH  013%=      5-min Rain = 0
KLBW 071750Z 30006G11KT 27/M04 A2999 RMK A01 T02721043  RH  012%=      5-min Rain = 0
KLBW 071755Z 31008KT 27/M04 A2998 RMK A01 T02741041  RH  012%=      5-min Rain = 0
KLBW 071800Z 31006G11KT 28/M04 A2998 RMK A01 T02751044  RH  012%=      5-min Rain = 0
KLBW 071805Z 29006KT 28/M04 A2998 RMK A01 T02771039  RH  012%=      5-min Rain = 0
KLBW 071810Z 33005G10KT 28/M03 A2998 RMK A01 T02831032  RH  013%=      5-min Rain = 0
KLBW 071815Z 33007KT 28/M04 A2997 RMK A01 T02791041  RH  012%=      5-min Rain = 0
KLBW 071820Z 31005KT 28/M04 A2997 RMK A01 T02781043  RH  012%=      5-min Rain = 0
KLBW 071825Z 28006KT 28/M04 A2997 RMK A01 T02811044  RH  012%=      5-min Rain = 0
KLBW 071830Z 32004KT 28/M04 A2997 RMK A01 T02791043  RH  012%=      5-min Rain = 0
KLBW 071835Z 25007KT 28/M04 A2997 RMK A01 T02831043  RH  012%=      5-min Rain = 0
KLBW 071840Z 24006G13KT 29/M05 A2997 RMK A01 T02851045  RH  011%=      5-min Rain = 0
KLBW 071845Z 28009G14KT 29/M05 A2996 RMK A01 T02871047  RH  011%=      5-min Rain = 0
KLBW 071850Z 29008G13KT 29/M04 A2997 RMK A01 T02861041  RH  012%=      5-min Rain = 0
KLBW 071855Z 30006KT 29/M04 A2996 RMK A01 T02881042  RH  011%=      5-min Rain = 0
KLBW 071900Z 25008G17KT 29/M05 A2996 RMK A01 T02881050  RH  011%=      5-min Rain = 0
KLBW 071905Z 30010G15KT 29/M05 A2996 RMK A01 T02911045  RH  011%=      5-min Rain = 0
KLBW 071910Z 27010G16KT 29/M05 A2996 RMK A01 T02891047  RH  011%=      5-min Rain = 0
KLBW 071915Z 24006G15KT 29/M06 A2996 RMK A01 T02891056  RH  010%=      5-min Rain = 0
KLBW 071920Z 27008KT 29/M05 A2996 RMK A01 T02901050  RH  011%=      5-min Rain = 0
KLBW 071925Z 27008G13KT 29/M04 A2996 RMK A01 T02941043  RH  011%=      5-min Rain = 0
KLBW 071930Z 30007G12KT 29/M05 A2996 RMK A01 T02931046  RH  011%=      5-min Rain = 0
KLBW 071935Z 27009G17KT 29/M05 A2996 RMK A01 T02921048  RH  011%=      5-min Rain = 0
KLBW 071940Z 26010G15KT 29/M06 A2995 RMK A01 T02901058  RH  010%=      5-min Rain = 0
KLBW 071945Z 24009G17KT 29/M06 A2995 RMK A01 T02931055  RH  010%=      5-min Rain = 0
KLBW 071950Z 27013G19KT 29/M05 A2995 RMK A01 T02941053  RH  010%=      5-min Rain = 0
KLBW 071955Z 27007G16KT 29/M06 A2995 RMK A01 T02911057  RH  010%=      5-min Rain = 0
KLBW 072000Z 26009G15KT 29/M06 A2994 RMK A01 T02941055  RH  010%=      5-min Rain = 0
KLBW 072005Z 25007G14KT 29/M05 A2994 RMK A01 T02941052  RH  010%=      5-min Rain = 0
KLBW 072010Z 26012G17KT 30/M05 A2994 RMK A01 T02981048  RH  010%=      5-min Rain = 0
KLBW 072015Z 28010G15KT 30/M05 A2994 RMK A01 T02991050  RH  010%=      5-min Rain = 0
KLBW 072020Z 25008G15KT 30/M05 A2994 RMK A01 T02981049  RH  010%=      5-min Rain = 0
KLBW 072025Z 26010G15KT 30/M05 A2993 RMK A01 T02991053  RH  010%=      5-min Rain = 0
KLBW 072030Z 25004KT 30/M05 A2993 RMK A01 T02971054  RH  010%=      5-min Rain = 0
KLBW 072035Z 25012G21KT 30/M05 A2992 RMK A01 T03011050  RH  010%=      5-min Rain = 0
KLBW 072040Z 29013KT 30/M05 A2993 RMK A01 T03001049  RH  010%=      5-min Rain = 0
KLBW 072045Z 29013KT 30/M05 A2992 RMK A01 T02981051  RH  010%=      5-min Rain = 0
KLBW 072050Z 23004KT 30/M05 A2992 RMK A01 T02991053  RH  010%=      5-min Rain = 0
KLBW 072055Z 22008G17KT 30/M06 A2992 RMK A01 T02981059  RH  009%=      5-min Rain = 0
KLBW 072100Z 25011G21KT 30/M06 A2992 RMK A01 T02991055  RH  010%=      5-min Rain = 0
KLBW 072105Z 28012G17KT 30/M05 A2992 RMK A01 T03021048  RH  010%=      5-min Rain = 0
KLBW 072110Z 27006G11KT 30/M05 A2992 RMK A01 T02981053  RH  010%=      5-min Rain = 0
KLBW 072115Z 22008G13KT 30/M05 A2991 RMK A01 T03031051  RH  010%=      5-min Rain = 0
KLBW 072120Z 26009G15KT 30/M05 A2991 RMK A01 T03031046  RH  010%=      5-min Rain = 0
KLBW 072125Z 26010G16KT 30/M05 A2991 RMK A01 T02971054  RH  010%=      5-min Rain = 0
KLBW 072130Z 27010G16KT 30/M05 A2991 RMK A01 T02971050  RH  010%=      5-min Rain = 0
KLBW 072135Z 27006G14KT 30/M05 A2991 RMK A01 T02961054  RH  010%=      5-min Rain = 0
KLBW 072140Z 26012G18KT 30/M05 A2991 RMK A01 T02981053  RH  010%=      5-min Rain = 0
KLBW 072145Z 27011G17KT 30/M05 A2991 RMK A01 T02991050  RH  010%=      5-min Rain = 0
KLBW 072150Z 26009G15KT 30/M06 A2991 RMK A01 T02961055  RH  010%=      5-min Rain = 0
KLBW 072155Z 24010G16KT 30/M05 A299 RMK A01 T02961054  RH  010%=      5-min Rain = 0
KLBW 072200Z 25010G16KT 30/M05 A299 RMK A01 T02971053  RH  010%=      5-min Rain = 0
KLBW 072205Z 27007G12KT 30/M05 A299 RMK A01 T02991046  RH  010%=      5-min Rain = 0
KLBW 072210Z 25007KT 30/M05 A299 RMK A01 T03021049  RH  010%=      5-min Rain = 0
KLBW 072215Z 27011G16KT 30/M05 A2989 RMK A01 T03021047  RH  010%=      5-min Rain = 0
KLBW 072220Z 24012G20KT 30/M05 A2989 RMK A01 T03001053  RH  010%=      5-min Rain = 0
KLBW 072225Z 25009G16KT 30/M05 A2989 RMK A01 T02981053  RH  010%=      5-min Rain = 0
KLBW 072230Z 26010G17KT 30/M05 A2989 RMK A01 T02981053  RH  010%=      5-min Rain = 0
KLBW 072235Z 27012KT 30/M06 A2989 RMK A01 T02951056  RH  010%=      5-min Rain = 0
KLBW 072240Z 28012KT 30/M05 A2989 RMK A01 T02981049  RH  010%=      5-min Rain = 0
KLBW 072245Z 28009KT 30/M05 A2989 RMK A01 T02951053  RH  010%=      5-min Rain = 0
KLBW 072250Z 25010KT 30/M06 A2989 RMK A01 T02951056  RH  010%=      5-min Rain = 0
KLBW 072255Z 25012G17KT 29/M06 A299 RMK A01 T02911058  RH  010%=      5-min Rain = 0
KLBW 072300Z 27011KT 29/M05 A299 RMK A01 T02921053  RH  010%=      5-min Rain = 0
KLBW 072305Z 27009G14KT 29/M05 A299 RMK A01 T02941051  RH  010%=      5-min Rain = 0
KLBW 072310Z 28007G13KT 29/M05 A299 RMK A01 T02921054  RH  010%=      5-min Rain = 0
KLBW 072315Z 27006KT 30/M06 A299 RMK A01 T02951056  RH  010%=      5-min Rain = 0
KLBW 072320Z 27008G13KT 29/M06 A299 RMK A01 T02921055  RH  010%=      5-min Rain = 0
KLBW 072325Z 26009KT 29/M05 A299 RMK A01 T02931051  RH  010%=      5-min Rain = 0
KLBW 072330Z 26010G15KT 29/M05 A299 RMK A01 T02941051  RH  010%=      5-min Rain = 0
KLBW 072335Z 27009KT 29/M06 A299 RMK A01 T02881055  RH  010%=      5-min Rain = 0
KLBW 072340Z 27009G18KT 29/M05 A299 RMK A01 T02911052  RH  010%=      5-min Rain = 0
KLBW 072345Z 26011G16KT 29/M05 A299 RMK A01 T02861052  RH  011%=      5-min Rain = 0
KLBW 072350Z 26011KT 28/M06 A299 RMK A01 T02831059  RH  010%=      5-min Rain = 0
KLBW 072355Z 25010G16KT 29/M06 A299 RMK A01 T02861057  RH  010%=      5-min Rain = 0
KLBW 080000Z 26010KT 28/M06 A299 RMK A01 T02841056  RH  010%=      5-min Rain = 0
KLBW 080005Z 26010KT 29/M06 A299 RMK A01 T02851057  RH  010%=      5-min Rain = 0
KLBW 080010Z 26010KT 28/M06 A299 RMK A01 T02841057  RH  010%=      5-min Rain = 0
KLBW 080015Z 27009KT 28/M06 A299 RMK A01 T02811055  RH  011%=      5-min Rain = 0
KLBW 080020Z 27010KT 28/M06 A299 RMK A01 T02751060  RH  011%=      5-min Rain = 0
KLBW 080025Z 26009G14KT 27/M06 A2991 RMK A01 T02731058  RH  011%=      5-min Rain = 0
KLBW 080030Z 26009KT 27/M06 A2991 RMK A01 T02731059  RH  011%=      5-min Rain = 0
KLBW 080035Z 26009KT 27/M06 A2991 RMK A01 T02681059  RH  011%=      5-min Rain = 0
KLBW 080040Z 26007KT 27/M06 A299 RMK A01 T02681055  RH  012%=      5-min Rain = 0
KLBW 080045Z 25008KT 26/M06 A299 RMK A01 T02631058  RH  012%=      5-min Rain = 0
KLBW 080050Z 25008KT 26/M06 A299 RMK A01 T02601058  RH  012%=      5-min Rain = 0
KLBW 080055Z 25007KT 26/M05 A2991 RMK A01 T02581054  RH  012%=      5-min Rain = 0
KLBW 080100Z 24006KT 26/M05 A2991 RMK A01 T02561052  RH  013%=      5-min Rain = 0
KLBW 080105Z 24006KT 25/M05 A2991 RMK A01 T02531052  RH  013%=      5-min Rain = 0
KLBW 080110Z 24006KT 25/M05 A2991 RMK A01 T02501053  RH  013%=      5-min Rain = 0
KLBW 080115Z 24007KT 25/M05 A2991 RMK A01 T02461054  RH  013%=      5-min Rain = 0
KLBW 080120Z 24008KT 25/M06 A2991 RMK A01 T02451055  RH  013%=      5-min Rain = 0
KLBW 080125Z 24009KT 25/M06 A2991 RMK A01 T02451055  RH  013%=      5-min Rain = 0
KLBW 080130Z 23010G15KT 25/M06 A2991 RMK A01 T02481055  RH  013%=      5-min Rain = 0
KLBW 080135Z 23009KT 24/M05 A2991 RMK A01 T02441054  RH  013%=      5-min Rain = 0
KLBW 080140Z 23009KT 24/M05 A2991 RMK A01 T02431054  RH  014%=      5-min Rain = 0
KLBW 080145Z 23009KT 24/M05 A2992 RMK A01 T02411052  RH  014%=      5-min Rain = 0
KLBW 080150Z 23009KT 24/M05 A2992 RMK A01 T02361050  RH  014%=      5-min Rain = 0
KLBW 080155Z 23009KT 24/M05 A2993 RMK A01 T02351050  RH  015%=      5-min Rain = 0
KLBW 080200Z 23009KT 23/M05 A2993 RMK A01 T02341050  RH  015%=      5-min Rain = 0
KLBW 080205Z 23010KT 23/M05 A2993 RMK A01 T02331050  RH  015%=      5-min Rain = 0
KLBW 080210Z 23009KT 23/M05 A2993 RMK A01 T02321050  RH  015%=      5-min Rain = 0
KLBW 080215Z 23009KT 23/M05 A2994 RMK A01 T02301051  RH  015%=      5-min Rain = 0
KLBW 080220Z 23009KT 23/M05 A2994 RMK A01 T02281050  RH  015%=      5-min Rain = 0
KLBW 080225Z 23009KT 23/M05 A2994 RMK A01 T02291051  RH  015%=      5-min Rain = 0
KLBW 080230Z 23010KT 23/M05 A2995 RMK A01 T02281051  RH  015%=      5-min Rain = 0
KLBW 080235Z 23009G15KT 23/M05 A2995 RMK A01 T02261049  RH  016%=      5-min Rain = 0
KLBW 080240Z 23009KT 22/M05 A2995 RMK A01 T02231048  RH  016%=      5-min Rain = 0
KLBW 080245Z 23009KT 22/M05 A2995 RMK A01 T02211048  RH  016%=      5-min Rain = 0
KLBW 080250Z 23009KT 22/M05 A2995 RMK A01 T02211048  RH  016%=      5-min Rain = 0
KLBW 080255Z 23009KT 22/M05 A2996 RMK A01 T02201048  RH  016%=      5-min Rain = 0
KLBW 080300Z 23009KT 22/M05 A2996 RMK A01 T02181048  RH  017%=      5-min Rain = 0
KLBW 080305Z 22009KT 22/M05 A2996 RMK A01 T02161048  RH  017%=      5-min Rain = 0
KLBW 080310Z 23010KT 22/M05 A2996 RMK A01 T02161048  RH  017%=      5-min Rain = 0
KLBW 080315Z 23010KT 22/M05 A2996 RMK A01 T02171048  RH  017%=      5-min Rain = 0
KLBW 080320Z 23010KT 22/M05 A2996 RMK A01 T02171048  RH  017%=      5-min Rain = 0
KLBW 080325Z 23009KT 22/M05 A2996 RMK A01 T02181048  RH  016%=      5-min Rain = 0
KLBW 080330Z 23009KT 22/M05 A2996 RMK A01 T02171047  RH  017%=      5-min Rain = 0
KLBW 080335Z 23009KT 22/M05 A2996 RMK A01 T02161046  RH  017%=      5-min Rain = 0
KLBW 080340Z 23008KT 22/M05 A2996 RMK A01 T02151045  RH  017%=      5-min Rain = 0
KLBW 080345Z 23008KT 21/M05 A2996 RMK A01 T02131045  RH  017%=      5-min Rain = 0
KLBW 080350Z 23009KT 21/M05 A2996 RMK A01 T02121045  RH  018%=      5-min Rain = 0
KLBW 080355Z 23008KT 21/M05 A2996 RMK A01 T02111045  RH  018%=      5-min Rain = 0
KLBW 080400Z 22007KT 20/M04 A2996 RMK A01 T02041042  RH  019%=      5-min Rain = 0
KLBW 080405Z 23008KT 20/M04 A2996 RMK A01 T01991042  RH  019%=      5-min Rain = 0
KLBW 080410Z 22008KT 20/M04 A2996 RMK A01 T02001042  RH  019%=      5-min Rain = 0
KLBW 080415Z 22008KT 20/M04 A2996 RMK A01 T02001041  RH  019%=      5-min Rain = 0
KLBW 080420Z 23007KT 20/M04 A2996 RMK A01 T01991040  RH  020%=      5-min Rain = 0
KLBW 080425Z 22006KT 20/M04 A2996 RMK A01 T01961038  RH  020%=      5-min Rain = 0
KLBW 080430Z 22006KT 19/M04 A2996 RMK A01 T01931038  RH  021%=      5-min Rain = 0
KLBW 080435Z 22006KT 19/M04 A2996 RMK A01 T01901037  RH  021%=      5-min Rain = 0
KLBW 080440Z 22006KT 19/M04 A2996 RMK A01 T01861035  RH  022%=      5-min Rain = 0
KLBW 080445Z 23005KT 18/M04 A2996 RMK A01 T01841035  RH  022%=      5-min Rain = 0
KLBW 080450Z 23005KT 19/M04 A2996 RMK A01 T01851036  RH  022%=      5-min Rain = 0
KLBW 080455Z 22005KT 18/M03 A2996 RMK A01 T01841034  RH  023%=      5-min Rain = 0

Page generated in 0.0089 seconds.